Time;durP1;ratioP1;P1;durP2;ratioP2;P2;SDS_P1;SDS_P2;PMS_P1;PMS_P2;Temp;Humidity;BMP_temperature;BMP_pressure;BME280_temperature;BME280_humidity;BME280_pressure;Samples;Min_cycle;Max_cycle;Signal;HPM_P1;HPM_P2
2023/05/19 00:02:19;;;;;;;16.38;7.57;;;8.10;99.90;;;;;;7356952;19;20482;-69
2023/05/19 00:04:48;;;;;;;14.68;7.40;;;8.10;99.90;;;;;;7361497;19;20030;-69
2023/05/19 00:07:18;;;;;;;20.35;8.07;;;8.10;99.90;;;;;;7356213;19;20492;-69
2023/05/19 00:09:45;;;;;;;14.00;7.38;;;8.00;99.90;;;;;;7357101;19;20018;-69
2023/05/19 00:12:12;;;;;;;12.13;6.75;;;8.10;99.90;;;;;;7355853;19;20025;-70
2023/05/19 00:14:38;;;;;;;14.55;7.45;;;8.00;99.90;;;;;;7357711;19;20549;-70
2023/05/19 00:17:05;;;;;;;12.55;7.22;;;8.00;99.90;;;;;;7357755;19;20494;-69
2023/05/19 00:19:32;;;;;;;19.60;8.55;;;8.00;99.90;;;;;;7357518;19;20036;-62
2023/05/19 00:21:58;;;;;;;16.30;7.32;;;8.00;99.90;;;;;;7357475;19;20796;-70
2023/05/19 00:24:24;;;;;;;14.88;7.80;;;7.90;99.90;;;;;;7357850;19;20410;-60
2023/05/19 00:26:51;;;;;;;17.25;8.18;;;7.90;99.90;;;;;;7357543;19;20025;-59
2023/05/19 00:29:17;;;;;;;16.27;8.68;;;7.90;99.90;;;;;;7358015;19;20022;-60
2023/05/19 00:31:44;;;;;;;16.63;7.90;;;7.90;99.90;;;;;;7356948;19;20014;-60
2023/05/19 00:34:12;;;;;;;14.27;7.70;;;7.90;99.90;;;;;;7358190;19;20485;-59
2023/05/19 00:36:39;;;;;;;15.85;8.20;;;7.90;99.90;;;;;;7355338;19;20363;-60
2023/05/19 00:39:05;;;;;;;16.60;8.73;;;7.90;99.90;;;;;;7360033;19;20055;-60
2023/05/19 00:41:31;;;;;;;15.32;7.68;;;7.90;99.90;;;;;;7357123;19;20022;-60
2023/05/19 00:43:58;;;;;;;16.10;7.85;;;7.90;99.90;;;;;;7355664;19;20065;-69
2023/05/19 00:46:24;;;;;;;15.05;8.27;;;7.80;99.90;;;;;;7358553;19;20478;-68
2023/05/19 00:48:51;;;;;;;18.08;9.35;;;7.90;99.90;;;;;;7357339;19;20402;-70
2023/05/19 00:51:17;;;;;;;16.83;8.82;;;7.90;99.90;;;;;;7357864;19;20029;-68
2023/05/19 00:53:48;;;;;;;17.00;8.68;;;7.90;99.90;;;;;;7356309;19;20018;-70
2023/05/19 00:56:16;;;;;;;19.75;9.38;;;7.80;99.90;;;;;;7357032;19;20303;-69
2023/05/19 00:58:43;;;;;;;17.17;8.50;;;7.80;99.90;;;;;;7358493;19;20038;-69
2023/05/19 01:01:13;;;;;;;16.25;8.77;;;7.80;99.90;;;;;;7353084;19;20632;-72
2023/05/19 01:03:41;;;;;;;15.23;8.70;;;7.80;99.90;;;;;;7358152;19;20473;-69
2023/05/19 01:06:07;;;;;;;14.18;8.77;;;7.80;99.90;;;;;;7361581;19;20194;-69
2023/05/19 01:08:36;;;;;;;16.08;9.25;;;7.80;99.90;;;;;;7358984;19;20021;-69
2023/05/19 01:11:04;;;;;;;19.40;8.98;;;7.80;99.90;;;;;;7349491;19;20383;-70
2023/05/19 01:13:31;;;;;;;18.65;8.85;;;7.70;99.90;;;;;;7358812;19;20408;-59
2023/05/19 01:16:11;;;;;;;18.52;8.30;;;7.70;99.90;;;;;;7362505;19;20028;-60
2023/05/19 01:18:54;;;;;;;19.23;8.45;;;7.70;99.90;;;;;;7358666;19;20852;-60
2023/05/19 01:21:36;;;;;;;17.80;8.20;;;7.70;99.90;;;;;;7361927;19;20967;-61
2023/05/19 01:24:08;;;;;;;14.70;8.63;;;7.70;99.90;;;;;;7361905;19;20018;-59
2023/05/19 01:26:48;;;;;;;16.13;9.55;;;7.70;99.90;;;;;;7364748;19;20019;-59
2023/05/19 01:29:14;;;;;;;21.27;10.00;;;7.70;99.90;;;;;;7362897;19;20018;-61
2023/05/19 01:31:41;;;;;;;19.00;8.65;;;7.70;99.90;;;;;;7363442;19;20734;-59
2023/05/19 01:34:10;;;;;;;17.23;8.20;;;7.70;99.90;;;;;;7358004;19;20519;-59
2023/05/19 01:36:43;;;;;;;16.55;9.23;;;7.70;99.90;;;;;;7363860;19;20018;-59
2023/05/19 01:39:10;;;;;;;18.77;10.52;;;7.70;99.90;;;;;;7362738;19;20023;-59
2023/05/19 01:41:40;;;;;;;17.00;9.20;;;7.60;99.90;;;;;;7365351;19;20465;-59
2023/05/19 01:44:09;;;;;;;17.60;8.90;;;7.60;99.90;;;;;;7362491;19;20752;-59
2023/05/19 01:46:37;;;;;;;19.75;9.23;;;7.60;99.90;;;;;;7365346;19;20015;-59
2023/05/19 01:49:05;;;;;;;18.80;8.75;;;7.60;99.90;;;;;;7361336;19;20029;-60
2023/05/19 01:51:31;;;;;;;19.10;9.35;;;7.60;99.90;;;;;;7367503;19;20923;-59
2023/05/19 01:53:57;;;;;;;20.75;9.63;;;7.60;99.90;;;;;;7363802;19;20022;-59
2023/05/19 01:57:08;;;;;;;13.65;8.80;;;7.60;99.90;;;;;;7365538;19;20024;-60
2023/05/19 01:59:46;;;;;;;24.35;8.85;;;7.60;99.90;;;;;;7362152;19;20578;-60
2023/05/19 02:02:37;;;;;;;20.27;9.27;;;7.60;99.90;;;;;;7364642;19;20597;-60
2023/05/19 02:05:16;;;;;;;16.35;9.60;;;7.60;99.90;;;;;;7365229;19;20022;-70
2023/05/19 02:08:04;;;;;;;19.17;8.90;;;7.60;99.90;;;;;;7367014;19;20100;-60
2023/05/19 02:10:36;;;;;;;20.75;9.60;;;7.60;99.90;;;;;;7365329;19;20497;-58
2023/05/19 02:13:03;;;;;;;;;;;7.60;99.90;;;;;;7362263;19;20014;-69
2023/05/19 02:15:39;;;;;;;15.93;8.65;;;7.60;99.90;;;;;;7360504;19;19918;-69
2023/05/19 02:18:08;;;;;;;20.85;9.18;;;7.50;99.90;;;;;;7362499;19;20014;-69
2023/05/19 02:20:34;;;;;;;19.60;8.85;;;7.50;99.90;;;;;;7357955;19;20018;-69
2023/05/19 02:23:00;;;;;;;17.98;8.30;;;7.50;99.90;;;;;;7359582;19;20018;-64
2023/05/19 02:25:26;;;;;;;17.25;9.80;;;7.50;99.90;;;;;;7361870;19;20021;-58
2023/05/19 02:27:53;;;;;;;17.08;9.05;;;7.40;99.90;;;;;;7362907;19;20018;-69
2023/05/19 02:30:20;;;;;;;16.05;8.95;;;7.40;99.90;;;;;;7359941;19;20027;-70
2023/05/19 02:32:49;;;;;;;26.73;10.27;;;7.40;99.90;;;;;;7364155;19;20018;-69
2023/05/19 02:35:15;;;;;;;20.85;9.38;;;7.40;99.90;;;;;;7364103;19;20023;-59
2023/05/19 02:37:42;;;;;;;20.85;9.85;;;7.40;99.90;;;;;;7361185;19;20026;-69
2023/05/19 02:40:08;;;;;;;24.45;10.32;;;7.30;99.90;;;;;;7360314;19;20038;-59
2023/05/19 02:42:35;;;;;;;17.13;10.20;;;7.30;99.90;;;;;;7362256;19;21045;-59
2023/05/19 02:45:01;;;;;;;17.65;9.73;;;7.30;99.90;;;;;;7359394;19;20064;-70
2023/05/19 02:47:27;;;;;;;19.30;9.60;;;7.30;99.90;;;;;;7363774;19;20061;-70
2023/05/19 02:49:54;;;;;;;18.75;9.23;;;7.20;99.90;;;;;;7360172;19;20015;-70
2023/05/19 02:52:21;;;;;;;21.05;9.38;;;7.30;99.90;;;;;;7362777;19;20018;-59
2023/05/19 02:54:47;;;;;;;21.67;9.48;;;7.30;99.90;;;;;;7360001;19;20514;-70
2023/05/19 02:57:13;;;;;;;19.63;9.70;;;7.30;99.90;;;;;;7363659;19;20029;-70
2023/05/19 02:59:41;;;;;;;20.77;10.23;;;7.30;99.90;;;;;;7355362;19;20082;-71
2023/05/19 03:02:10;;;;;;;19.42;9.70;;;7.30;99.90;;;;;;7363183;19;20146;-71
2023/05/19 03:04:40;;;;;;;22.48;9.80;;;7.20;99.90;;;;;;7358425;19;20025;-71
2023/05/19 03:07:08;;;;;;;21.80;10.05;;;7.20;99.90;;;;;;7361822;19;20018;-71
2023/05/19 03:09:38;;;;;;;19.35;10.23;;;7.20;99.90;;;;;;7361831;19;20023;-70
2023/05/19 03:12:06;;;;;;;20.13;9.52;;;7.20;99.90;;;;;;7362671;19;20022;-58
2023/05/19 03:14:33;;;;;;;19.50;10.00;;;7.20;99.90;;;;;;7359929;19;20885;-59
2023/05/19 03:17:00;;;;;;;17.52;9.57;;;7.20;99.90;;;;;;7362892;19;20019;-59
2023/05/19 03:19:26;;;;;;;20.00;9.20;;;7.20;99.90;;;;;;7360689;19;20018;-58
2023/05/19 03:21:55;;;;;;;16.60;9.45;;;7.20;99.90;;;;;;7362606;19;20032;-69
2023/05/19 03:24:21;;;;;;;21.50;10.45;;;7.20;99.90;;;;;;7358484;19;20026;-68
2023/05/19 03:26:47;;;;;;;20.70;10.30;;;7.10;99.90;;;;;;7365004;19;20023;-68
2023/05/19 03:29:14;;;;;;;21.60;10.40;;;7.20;99.90;;;;;;7367302;19;20047;-58
2023/05/19 03:31:40;;;;;;;18.65;10.35;;;7.20;99.90;;;;;;7366648;19;20094;-58
2023/05/19 03:34:07;;;;;;;22.20;10.32;;;7.10;99.90;;;;;;7349266;19;20018;-69
2023/05/19 03:36:38;;;;;;;20.80;9.98;;;7.10;99.90;;;;;;7352540;19;21267;-59
2023/05/19 03:39:05;;;;;;;;;;;7.10;99.90;;;;;;7360387;19;20422;-68
2023/05/19 03:41:32;;;;;;;21.23;9.40;;;7.10;99.90;;;;;;7352610;19;19954;-58
2023/05/19 03:43:58;;;;;;;15.65;10.05;;;7.10;99.90;;;;;;7357247;19;20022;-59
2023/05/19 03:46:25;;;;;;;19.50;10.02;;;7.10;99.90;;;;;;7356590;19;20442;-60
2023/05/19 03:49:10;;;;;;;18.60;10.07;;;7.10;99.90;;;;;;7359116;19;20035;-59
2023/05/19 03:51:39;;;;;;;22.02;11.00;;;7.10;99.90;;;;;;7359233;19;20018;-58
2023/05/19 03:54:21;;;;;;;22.10;10.27;;;7.10;99.90;;;;;;7356704;19;20014;-59
2023/05/19 03:56:47;;;;;;;18.95;10.43;;;7.10;99.90;;;;;;7357283;19;20038;-59
2023/05/19 03:59:15;;;;;;;21.58;10.88;;;7.10;99.90;;;;;;7354864;19;20481;-59
2023/05/19 04:01:41;;;;;;;23.27;10.27;;;7.20;99.90;;;;;;7355535;19;20025;-60
2023/05/19 04:04:07;;;;;;;23.45;10.85;;;7.20;99.90;;;;;;7355819;19;20612;-58
2023/05/19 04:06:35;;;;;;;25.40;11.02;;;7.20;99.90;;;;;;7364188;19;20485;-58
2023/05/19 04:09:03;;;;;;;20.85;11.63;;;7.20;99.90;;;;;;7354960;19;20480;-58
2023/05/19 04:11:30;;;;;;;24.63;11.65;;;7.20;99.90;;;;;;7357127;19;20022;-70
2023/05/19 04:13:57;;;;;;;22.52;10.75;;;7.30;99.90;;;;;;7354079;19;20031;-70
2023/05/19 04:16:23;;;;;;;23.05;11.48;;;7.30;99.90;;;;;;7359265;19;20483;-69
2023/05/19 04:18:50;;;;;;;18.83;10.63;;;7.40;99.90;;;;;;7354339;19;20588;-69
2023/05/19 04:21:16;;;;;;;23.92;11.63;;;7.40;99.90;;;;;;7355745;19;20018;-59
2023/05/19 04:23:42;;;;;;;22.00;12.15;;;7.40;99.90;;;;;;7354842;19;20019;-69
2023/05/19 04:26:09;;;;;;;25.85;11.60;;;7.50;99.90;;;;;;7353319;19;20022;-69
2023/05/19 04:28:38;;;;;;;19.25;10.27;;;7.50;99.90;;;;;;7357405;19;20018;-68
2023/05/19 04:31:09;;;;;;;16.60;10.68;;;7.50;99.90;;;;;;7359245;19;20048;-68
2023/05/19 04:33:36;;;;;;;20.85;10.80;;;7.60;99.90;;;;;;7358105;19;20022;-64
2023/05/19 04:36:04;;;;;;;22.13;10.95;;;7.60;99.90;;;;;;7355740;19;20023;-67
2023/05/19 04:38:32;;;;;;;20.77;10.23;;;7.70;99.90;;;;;;7353939;19;20022;-68
2023/05/19 04:41:00;;;;;;;22.17;11.43;;;7.70;99.90;;;;;;7349519;19;20025;-58
2023/05/19 04:43:27;;;;;;;20.30;12.38;;;7.80;99.90;;;;;;7353699;19;20400;-67
2023/05/19 04:45:54;;;;;;;19.40;11.70;;;7.80;99.90;;;;;;7353539;19;20581;-67
2023/05/19 04:48:21;;;;;;;20.75;10.82;;;7.90;99.90;;;;;;7355823;19;20026;-67
2023/05/19 04:50:48;;;;;;;22.17;10.80;;;8.00;99.90;;;;;;7353965;19;20022;-68
2023/05/19 04:53:15;;;;;;;15.77;10.75;;;8.10;99.90;;;;;;7357498;19;20521;-68
2023/05/19 04:55:42;;;;;;;25.15;11.68;;;8.10;99.90;;;;;;7352731;19;20022;-62
2023/05/19 04:58:08;;;;;;;23.10;10.48;;;8.20;99.90;;;;;;7355406;19;20043;-67
2023/05/19 05:00:36;;;;;;;21.02;10.70;;;8.30;99.90;;;;;;7352005;19;20109;-69
2023/05/19 05:03:06;;;;;;;18.73;11.10;;;8.40;99.90;;;;;;7353102;19;20502;-68
2023/05/19 05:05:33;;;;;;;15.75;10.52;;;8.60;99.90;;;;;;7352572;19;20303;-68
2023/05/19 05:08:02;;;;;;;14.88;9.95;;;8.80;99.90;;;;;;7354379;19;20007;-58
2023/05/19 05:10:32;;;;;;;17.40;10.10;;;9.00;99.90;;;;;;7355419;19;20369;-67
2023/05/19 05:12:59;;;;;;;20.02;9.40;;;9.30;99.90;;;;;;7349493;19;20084;-68
2023/05/19 05:15:27;;;;;;;15.43;9.07;;;9.50;99.90;;;;;;7356833;19;20514;-59
2023/05/19 05:17:55;;;;;;;20.13;11.35;;;9.80;99.90;;;;;;7357197;19;20022;-67
2023/05/19 05:20:22;;;;;;;14.93;9.43;;;10.00;99.90;;;;;;7352313;19;20462;-67
2023/05/19 05:22:49;;;;;;;15.25;8.23;;;10.20;99.90;;;;;;7351772;19;20021;-68
2023/05/19 05:25:17;;;;;;;11.43;7.43;;;10.50;99.90;;;;;;7354797;19;20043;-59
2023/05/19 05:27:43;;;;;;;13.75;7.85;;;10.70;99.90;;;;;;7355118;19;20061;-67
2023/05/19 05:30:12;;;;;;;14.45;7.65;;;10.60;99.90;;;;;;7356290;19;20417;-67
2023/05/19 05:32:40;;;;;;;19.58;12.45;;;10.70;99.90;;;;;;7355689;19;20022;-68
2023/05/19 05:35:12;;;;;;;14.95;7.93;;;10.70;99.90;;;;;;7355773;19;20616;-58
2023/05/19 05:37:39;;;;;;;12.60;8.70;;;10.80;99.90;;;;;;7357162;19;20469;-59
2023/05/19 05:40:06;;;;;;;13.68;8.00;;;11.10;99.90;;;;;;7351758;19;20038;-68
2023/05/19 05:42:33;;;;;;;14.00;7.68;;;11.20;99.90;;;;;;7355974;19;20074;-68
2023/05/19 05:45:01;;;;;;;19.70;11.50;;;11.50;99.90;;;;;;7354538;19;20046;-68
2023/05/19 05:47:27;;;;;;;15.35;6.97;;;11.80;99.90;;;;;;7360156;19;20018;-59
2023/05/19 05:49:54;;;;;;;12.40;6.82;;;12.00;99.90;;;;;;7353587;19;20485;-68
2023/05/19 05:52:28;;;;;;;15.07;7.13;;;12.20;99.90;;;;;;7355992;19;20015;-59
2023/05/19 05:54:55;;;;;;;9.93;6.55;;;12.40;99.90;;;;;;7353761;19;20014;-59
2023/05/19 05:57:22;;;;;;;11.43;6.13;;;12.40;99.90;;;;;;7354846;19;20053;-59
2023/05/19 05:59:49;;;;;;;16.15;6.75;;;12.70;99.90;;;;;;7353889;19;20120;-59
2023/05/19 06:02:17;;;;;;;14.55;6.78;;;12.80;99.90;;;;;;7357380;19;20052;-58
2023/05/19 06:04:43;;;;;;;12.82;6.45;;;13.00;99.90;;;;;;7354261;19;20019;-67
2023/05/19 06:07:09;;;;;;;11.68;6.40;;;13.00;99.90;;;;;;7349593;19;20043;-67
2023/05/19 06:09:38;;;;;;;12.10;6.18;;;13.10;99.90;;;;;;7360012;19;20099;-67
2023/05/19 06:12:06;;;;;;;9.95;5.90;;;13.20;99.90;;;;;;7352346;19;20098;-67
2023/05/19 06:14:38;;;;;;;11.18;6.05;;;13.40;99.90;;;;;;7359115;19;20042;-66
2023/05/19 06:17:23;;;;;;;9.50;5.45;;;13.50;99.90;;;;;;7354005;19;20019;-68
2023/05/19 06:19:52;;;;;;;10.10;5.40;;;13.60;99.90;;;;;;7352703;19;20033;-67
2023/05/19 06:22:18;;;;;;;9.25;5.43;;;13.70;99.90;;;;;;7348929;19;20461;-59
2023/05/19 06:24:45;;;;;;;10.77;5.68;;;13.80;99.90;;;;;;7355414;19;20858;-67
2023/05/19 06:27:12;;;;;;;11.07;5.43;;;13.70;99.90;;;;;;7353062;19;20608;-67
2023/05/19 06:29:47;;;;;;;11.00;5.30;;;13.80;99.90;;;;;;7352694;19;20014;-67
2023/05/19 06:32:24;;;;;;;10.45;5.00;;;13.90;99.90;;;;;;7354831;19;20582;-67
2023/05/19 06:34:53;;;;;;;10.90;5.30;;;13.90;99.90;;;;;;7352176;19;20021;-67
2023/05/19 06:37:21;;;;;;;9.43;4.95;;;14.20;99.90;;;;;;7352061;19;20014;-67
2023/05/19 06:39:52;;;;;;;19.15;12.68;;;14.20;99.90;;;;;;7350047;19;20507;-67
2023/05/19 06:42:21;;;;;;;11.90;5.37;;;14.40;99.90;;;;;;7348929;19;20056;-67
2023/05/19 06:45:06;;;;;;;11.23;5.05;;;14.50;99.90;;;;;;7348940;19;20592;-67
2023/05/19 06:47:32;;;;;;;10.57;4.78;;;14.50;99.90;;;;;;7352100;19;20349;-67
2023/05/19 06:50:01;;;;;;;9.88;4.30;;;14.70;99.90;;;;;;7349698;19;20024;-67
2023/05/19 06:52:32;;;;;;;11.32;5.53;;;14.90;99.90;;;;;;7355151;19;20025;-61
2023/05/19 06:55:00;;;;;;;12.07;5.07;;;15.00;99.90;;;;;;7357180;19;20499;-66
2023/05/19 06:57:26;;;;;;;15.77;12.05;;;15.00;99.90;;;;;;7352218;19;20010;-67
2023/05/19 06:59:53;;;;;;;10.13;4.65;;;15.30;99.90;;;;;;7295271;19;20014;-67
2023/05/19 07:02:19;;;;;;;8.60;4.07;;;15.40;99.90;;;;;;7350816;19;20719;-67
2023/05/19 07:04:47;;;;;;;12.57;5.63;;;15.50;99.90;;;;;;7351293;19;20450;-67
2023/05/19 07:07:15;;;;;;;7.10;4.10;;;15.70;99.90;;;;;;7354102;19;20023;-67
2023/05/19 07:09:43;;;;;;;16.27;10.52;;;15.90;99.90;;;;;;7350823;19;20558;-67
2023/05/19 07:12:09;;;;;;;16.83;10.07;;;16.10;99.90;;;;;;7350563;19;20014;-68
2023/05/19 07:14:39;;;;;;;11.32;5.72;;;16.30;99.90;;;;;;7351020;19;20010;-68
2023/05/19 07:17:06;;;;;;;13.25;5.88;;;16.60;99.90;;;;;;7349402;19;20022;-68
2023/05/19 07:19:34;;;;;;;11.23;6.35;;;16.90;99.90;;;;;;7353151;19;20053;-68
2023/05/19 07:22:01;;;;;;;20.65;15.77;;;16.70;99.90;;;;;;7352609;19;20781;-63
2023/05/19 07:24:27;;;;;;;60.03;53.67;;;17.20;99.90;;;;;;7355794;19;20900;-63
2023/05/19 07:26:54;;;;;;;9.43;4.13;;;17.30;99.90;;;;;;7352578;19;20011;-68
2023/05/19 07:29:20;;;;;;;9.30;3.67;;;17.30;99.90;;;;;;7357040;19;20035;-67
2023/05/19 07:31:46;;;;;;;6.30;3.50;;;17.10;96.20;;;;;;7350628;19;20025;-68
2023/05/19 07:34:13;;;;;;;9.30;4.05;;;17.40;96.00;;;;;;7354317;19;20018;-67
2023/05/19 07:36:40;;;;;;;34.47;28.92;;;17.50;98.60;;;;;;7355880;19;20074;-68
2023/05/19 07:39:06;;;;;;;95.95;86.22;;;17.60;96.00;;;;;;7357794;19;20022;-69
2023/05/19 07:41:32;;;;;;;11.10;7.43;;;18.10;97.00;;;;;;7355356;19;20023;-69
2023/05/19 07:43:59;;;;;;;18.20;14.32;;;18.30;71.20;;;;;;7356814;19;20022;-68
2023/05/19 07:46:25;;;;;;;26.27;21.27;;;18.60;70.00;;;;;;7358109;19;20094;-60
2023/05/19 07:48:51;;;;;;;35.85;32.05;;;18.60;69.20;;;;;;7351491;19;20023;-60
2023/05/19 07:51:18;;;;;;;22.65;19.23;;;19.00;69.20;;;;;;7356171;19;20026;-59
2023/05/19 07:53:45;;;;;;;13.85;9.55;;;19.00;65.90;;;;;;7354875;19;20023;-59
2023/05/19 07:56:12;;;;;;;11.65;9.38;;;18.50;64.90;;;;;;7356722;19;21944;-60
2023/05/19 07:58:38;;;;;;;17.85;11.70;;;19.20;66.30;;;;;;7356121;19;20050;-66
2023/05/19 08:01:04;;;;;;;14.50;10.55;;;19.00;63.20;;;;;;7351762;19;20505;-59
2023/05/19 08:03:30;;;;;;;10.30;5.03;;;19.00;60.50;;;;;;7363246;19;20021;-66
2023/05/19 08:05:57;;;;;;;8.10;4.55;;;18.70;60.20;;;;;;7356339;19;20042;-61
2023/05/19 08:08:23;;;;;;;8.13;4.57;;;18.90;61.00;;;;;;7348421;19;20050;-65
2023/05/19 08:10:50;;;;;;;10.27;5.10;;;18.80;59.70;;;;;;7356405;19;20014;-67
2023/05/19 08:13:17;;;;;;;29.20;24.20;;;18.80;60.90;;;;;;7362802;19;20097;-63
2023/05/19 08:15:43;;;;;;;20.58;5.82;;;18.70;58.90;;;;;;7362900;19;20037;-59
2023/05/19 08:18:10;;;;;;;85.22;76.63;;;18.80;60.50;;;;;;7360306;19;20617;-62
2023/05/19 08:20:36;;;;;;;53.22;47.05;;;18.90;59.10;;;;;;7369453;19;20025;-64
2023/05/19 08:23:04;;;;;;;28.45;23.70;;;19.10;59.70;;;;;;7374703;19;20028;-59
2023/05/19 08:25:30;;;;;;;29.58;25.05;;;19.40;60.00;;;;;;7370067;19;20366;-66
2023/05/19 08:27:57;;;;;;;11.07;5.85;;;19.20;58.30;;;;;;7361654;19;20415;-60
2023/05/19 08:30:23;;;;;;;8.13;3.20;;;19.30;56.20;;;;;;7369939;19;20110;-60
2023/05/19 08:32:49;;;;;;;9.40;2.83;;;18.90;56.20;;;;;;7366372;19;20082;-68
2023/05/19 08:35:16;;;;;;;5.82;2.25;;;19.50;55.50;;;;;;7359290;19;20018;-59
2023/05/19 08:37:42;;;;;;;11.65;3.60;;;19.40;56.20;;;;;;7361046;19;20015;-70
2023/05/19 08:40:16;;;;;;;6.75;3.22;;;19.30;55.30;;;;;;7359443;19;20870;-59
2023/05/19 08:42:46;;;;;;;7.75;3.22;;;19.50;58.70;;;;;;7360523;19;20033;-70
2023/05/19 08:45:12;;;;;;;6.55;2.58;;;19.70;59.10;;;;;;7361287;19;20015;-70
2023/05/19 08:47:41;;;;;;;6.22;2.25;;;19.60;57.90;;;;;;7357455;19;20413;-69
2023/05/19 08:50:09;;;;;;;7.68;2.53;;;19.80;54.90;;;;;;7354281;19;20054;-69
2023/05/19 08:53:01;;;;;;;8.63;2.70;;;19.60;56.00;;;;;;7354430;19;20530;-68
2023/05/19 08:55:52;;;;;;;8.93;3.03;;;19.90;56.70;;;;;;7357596;19;20390;-60
2023/05/19 08:58:21;;;;;;;7.40;2.70;;;20.20;53.90;;;;;;7358415;19;20019;-70
2023/05/19 09:00:48;;;;;;;9.43;2.92;;;20.00;53.90;;;;;;7362055;19;20022;-67
2023/05/19 09:03:16;;;;;;;6.82;4.15;;;20.10;52.90;;;;;;7358917;19;20022;-70
2023/05/19 09:05:42;;;;;;;8.00;3.53;;;20.10;52.70;;;;;;7359785;19;20014;-69
2023/05/19 09:08:08;;;;;;;9.60;3.33;;;20.40;52.50;;;;;;7356704;19;20029;-70
2023/05/19 09:10:35;;;;;;;10.93;4.03;;;20.80;52.60;;;;;;7357860;19;20645;-70
2023/05/19 09:13:03;;;;;;;7.78;3.17;;;20.70;51.30;;;;;;7355111;19;20020;-69
2023/05/19 09:15:31;;;;;;;8.32;3.97;;;21.10;52.00;;;;;;7357954;19;20023;-69
2023/05/19 09:18:12;;;;;;;9.75;4.80;;;21.00;51.10;;;;;;7358815;19;20033;-69
2023/05/19 09:20:45;;;;;;;79.40;71.20;;;21.10;49.90;;;;;;7358637;19;20025;-65
2023/05/19 09:23:16;;;;;;;20.65;16.33;;;21.30;50.70;;;;;;7360847;19;20007;-59
2023/05/19 09:25:52;;;;;;;7.30;4.35;;;21.90;49.60;;;;;;7361149;19;20019;-58
2023/05/19 09:28:30;;;;;;;31.17;24.90;;;22.40;48.20;;;;;;7352003;19;20021;-60
2023/05/19 09:31:03;;;;;;;16.10;11.88;;;22.10;48.30;;;;;;7356531;19;20037;-61
2023/05/19 09:33:32;;;;;;;15.38;10.73;;;22.50;47.80;;;;;;7358454;19;20450;-61
2023/05/19 09:35:58;;;;;;;10.80;4.65;;;22.30;47.20;;;;;;7353818;19;21806;-60
2023/05/19 09:38:26;;;;;;;9.15;4.15;;;21.60;47.00;;;;;;7350739;19;20010;-59
2023/05/19 09:40:56;;;;;;;11.25;6.32;;;21.40;48.60;;;;;;7355505;19;20035;-60
2023/05/19 09:43:22;;;;;;;9.32;5.57;;;21.20;49.10;;;;;;7360756;19;20015;-59
2023/05/19 09:46:07;;;;;;;8.10;2.83;;;21.30;48.50;;;;;;7360978;19;20497;-60
2023/05/19 09:48:35;;;;;;;36.92;33.13;;;21.80;48.40;;;;;;7352118;19;20048;-60
2023/05/19 09:51:02;;;;;;;10.80;4.35;;;22.30;47.10;;;;;;7362471;19;20541;-61
2023/05/19 09:53:31;;;;;;;9.05;3.50;;;22.30;46.40;;;;;;7358209;19;20604;-61
2023/05/19 09:55:57;;;;;;;7.72;4.10;;;22.60;45.80;;;;;;7355598;19;20014;-62
2023/05/19 09:58:44;;;;;;;14.10;8.85;;;22.70;46.80;;;;;;7351288;19;20018;-68
2023/05/19 10:01:11;;;;;;;11.70;6.05;;;23.30;46.70;;;;;;7351857;19;20360;-68
2023/05/19 10:03:38;;;;;;;7.93;3.47;;;23.40;45.00;;;;;;7353522;19;20019;-68
2023/05/19 10:06:06;;;;;;;8.38;2.80;;;23.40;45.80;;;;;;7359165;19;20021;-69
2023/05/19 10:08:33;;;;;;;8.30;2.75;;;23.60;45.60;;;;;;7352134;19;20532;-68
2023/05/19 10:11:00;;;;;;;6.80;2.75;;;23.80;43.00;;;;;;7355423;19;20473;-69
2023/05/19 10:13:30;;;;;;;8.50;3.17;;;23.70;43.30;;;;;;7356773;19;20062;-68
2023/05/19 10:15:57;;;;;;;6.53;2.70;;;23.60;43.90;;;;;;7355546;19;20023;-67
2023/05/19 10:18:25;;;;;;;7.65;2.55;;;23.40;43.70;;;;;;7351062;19;20015;-62
2023/05/19 10:20:52;;;;;;;9.68;2.67;;;23.60;44.00;;;;;;7350248;19;20044;-62
2023/05/19 10:23:22;;;;;;;8.75;2.63;;;23.40;43.70;;;;;;7351805;19;20018;-61
2023/05/19 10:25:51;;;;;;;6.55;2.50;;;23.00;44.70;;;;;;7353131;19;20019;-65
2023/05/19 10:28:22;;;;;;;14.43;10.63;;;23.20;45.60;;;;;;7352983;19;20122;-64
2023/05/19 10:30:52;;;;;;;29.48;24.90;;;23.60;45.60;;;;;;7349396;19;20020;-64
2023/05/19 10:33:21;;;;;;;8.55;2.63;;;24.00;45.10;;;;;;7354192;19;20034;-61
2023/05/19 10:36:07;;;;;;;8.48;2.58;;;23.80;44.30;;;;;;7336179;19;20026;-62
2023/05/19 10:38:47;;;;;;;9.13;2.38;;;23.90;42.70;;;;;;7365915;19;20027;-62
2023/05/19 10:41:33;;;;;;;7.10;2.35;;;24.20;43.30;;;;;;7363429;19;20510;-62
2023/05/19 10:44:14;;;;;;;9.13;3.63;;;24.10;42.90;;;;;;7369436;19;20501;-62
2023/05/19 10:46:41;;;;;;;;;;;24.00;43.70;;;;;;7368378;19;20418;-62
2023/05/19 10:49:08;;;;;;;7.10;2.70;;;23.50;42.50;;;;;;7367688;19;19922;-62
2023/05/19 10:51:35;;;;;;;8.20;3.13;;;23.50;42.70;;;;;;7370914;19;20021;-61
2023/05/19 10:54:07;;;;;;;8.38;2.65;;;23.30;41.70;;;;;;7371020;19;20022;-62
2023/05/19 10:56:35;;;;;;;10.32;2.50;;;22.90;42.30;;;;;;7368815;19;20014;-63
2023/05/19 10:59:02;;;;;;;7.25;4.03;;;23.10;43.60;;;;;;7369615;19;20018;-62
2023/05/19 11:01:37;;;;;;;8.85;4.53;;;23.70;44.20;;;;;;7369495;19;20042;-62
2023/05/19 11:04:12;;;;;;;7.95;2.38;;;23.90;43.10;;;;;;7371093;19;20022;-63
2023/05/19 11:06:42;;;;;;;7.68;2.83;;;24.20;41.70;;;;;;7367566;19;20042;-70
2023/05/19 11:09:14;;;;;;;9.32;4.00;;;23.60;41.70;;;;;;7368399;19;20272;-62
2023/05/19 11:11:47;;;;;;;7.63;4.45;;;23.40;43.00;;;;;;7363823;19;20263;-62
2023/05/19 11:14:27;;;;;;;5.80;2.33;;;23.60;44.00;;;;;;7373007;19;20365;-62
2023/05/19 11:16:58;;;;;;;6.63;1.83;;;23.80;44.20;;;;;;7351505;19;20877;-71
2023/05/19 11:19:29;;;;;;;6.18;2.65;;;24.30;42.30;;;;;;7353209;19;20021;-62
2023/05/19 11:21:56;;;;;;;6.97;2.10;;;24.60;41.80;;;;;;7347470;19;20514;-70
2023/05/19 11:24:46;;;;;;;7.75;2.67;;;25.10;41.00;;;;;;7353636;19;20018;-62
2023/05/19 11:27:36;;;;;;;9.07;4.13;;;25.10;42.40;;;;;;7352734;19;20471;-62
2023/05/19 11:30:06;;;;;;;10.00;5.07;;;25.20;41.60;;;;;;7346040;19;20138;-66
2023/05/19 11:32:34;;;;;;;7.10;2.28;;;25.50;41.00;;;;;;7365715;19;20431;-70
2023/05/19 11:35:01;;;;;;;8.55;2.85;;;25.30;41.70;;;;;;7364310;19;20022;-69
2023/05/19 11:37:31;;;;;;;6.10;2.35;;;25.30;41.70;;;;;;7362835;19;20019;-62
2023/05/19 11:40:00;;;;;;;11.27;3.23;;;25.30;41.50;;;;;;7363348;19;20014;-61
2023/05/19 11:42:27;;;;;;;9.55;2.33;;;24.60;40.70;;;;;;7366571;19;20426;-69
2023/05/19 11:44:56;;;;;;;7.65;2.28;;;24.50;41.20;;;;;;7364828;19;20835;-70
2023/05/19 11:47:22;;;;;;;6.90;2.35;;;24.90;42.20;;;;;;7372756;19;20026;-61
2023/05/19 11:49:50;;;;;;;8.20;2.50;;;24.80;40.80;;;;;;7375101;19;20018;-69
2023/05/19 11:52:21;;;;;;;9.95;4.45;;;25.10;41.80;;;;;;7375091;19;20471;-66
2023/05/19 11:54:47;;;;;;;13.27;3.40;;;24.90;41.50;;;;;;7380655;19;20029;-69
2023/05/19 11:57:14;;;;;;;10.90;4.43;;;25.10;40.80;;;;;;7382428;19;20035;-70
2023/05/19 11:59:44;;;;;;;8.68;2.75;;;25.00;40.40;;;;;;7376497;19;20784;-70
2023/05/19 12:02:18;;;;;;;4.63;2.08;;;25.00;39.70;;;;;;7377089;19;20030;-70
2023/05/19 12:04:46;;;;;;;13.02;8.27;;;25.20;40.50;;;;;;7375462;19;20018;-70
2023/05/19 12:07:16;;;;;;;10.32;5.70;;;25.10;40.30;;;;;;7375133;19;20018;-69
2023/05/19 12:09:44;;;;;;;5.18;2.00;;;25.10;39.80;;;;;;7377158;19;20025;-69
2023/05/19 12:12:16;;;;;;;5.90;2.47;;;25.50;40.50;;;;;;7374630;19;20234;-70
2023/05/19 12:14:48;;;;;;;7.20;2.25;;;25.50;40.20;;;;;;7376836;19;20014;-70
2023/05/19 12:17:19;;;;;;;9.88;3.95;;;25.40;40.10;;;;;;7375924;19;20435;-70
2023/05/19 12:19:47;;;;;;;7.30;3.92;;;25.60;40.90;;;;;;7375481;19;20006;-69
2023/05/19 12:22:17;;;;;;;9.25;4.75;;;25.40;40.30;;;;;;7375701;19;20018;-61
2023/05/19 12:24:44;;;;;;;7.87;3.17;;;25.60;39.70;;;;;;7374647;19;20010;-70
2023/05/19 12:27:23;;;;;;;10.30;6.20;;;25.50;40.10;;;;;;7374952;19;20022;-62
2023/05/19 12:29:51;;;;;;;12.27;7.75;;;25.50;40.80;;;;;;7378543;19;20816;-63
2023/05/19 12:32:17;;;;;;;8.55;4.10;;;25.40;40.70;;;;;;7372969;19;20048;-63
2023/05/19 12:34:44;;;;;;;9.80;4.38;;;25.40;41.40;;;;;;7377063;19;20478;-61
2023/05/19 12:37:10;;;;;;;8.88;4.25;;;25.80;40.30;;;;;;7374771;19;20379;-64
2023/05/19 12:39:37;;;;;;;9.60;5.10;;;26.00;39.10;;;;;;7376174;19;20597;-63
2023/05/19 12:42:11;;;;;;;6.97;3.25;;;25.90;39.30;;;;;;7375372;19;20014;-61
2023/05/19 12:44:46;;;;;;;7.10;2.47;;;25.70;39.20;;;;;;7366961;19;20021;-70
2023/05/19 12:47:14;;;;;;;16.92;11.15;;;25.10;39.20;;;;;;7376145;19;20483;-69
2023/05/19 12:50:06;;;;;;;14.68;9.23;;;25.30;40.60;;;;;;7373934;19;20011;-70
2023/05/19 12:52:53;;;;;;;30.48;27.27;;;25.60;41.00;;;;;;7374969;19;20481;-74
2023/05/19 12:55:20;;;;;;;26.58;21.35;;;25.90;41.10;;;;;;7377068;19;20022;-73